This is the latest recevied weather packets stored in our database for station/object N0ZRD-10. If no packets are shown the sender has not sent any weather packets the latest 10 day(s).
| Time | Temp. | Humidity | Pressure | Rain* | Wind** | Luminosity | Snow |
|---|---|---|---|---|---|---|---|
| 1777843994 | 17.22° C | 17% | - | 0 mm | - | - | - |
| 1777842792 | 16.67° C | 18% | - | 0 mm | - | - | - |
| 1777840388 | 16.67° C | 19% | - | 0 mm | - | - | - |
| 1777836782 | 15.56° C | 20% | - | 0 mm | - | - | - |
| 1777833176 | 15.56° C | 17% | - | 0 mm | - | - | - |
| 1777827164 | 13.89° C | 14% | - | 0 mm | - | - | - |
| 1777817546 | 11.67° C | 46% | - | 0 mm | - | - | - |
| 1777816946 | 11.67° C | 49% | - | 0 mm | - | - | - |
| 1777811532 | 7.78° C | 66% | - | 0 mm | - | - | - |
| 1777807924 | 3.89° C | 82% | - | 0 mm | - | - | - |
| 1777806722 | 3.89° C | 81% | - | 0 mm | - | - | - |
| 1777804921 | 5° C | 80% | - | 0 mm | - | - | - |
| 1777803717 | 5.56° C | 77% | - | 0 mm | - | - | - |
| 1777803117 | 6.67° C | 75% | - | 0 mm | - | - | - |
| 1777801914 | 6.11° C | 80% | - | 0 mm | - | - | - |
| 1777798910 | 5° C | 75% | - | 0 mm | - | - | - |
| 1777798309 | 5.56° C | 75% | - | 0 mm | - | - | - |
| 1777797106 | 6.67° C | 74% | - | 0 mm | - | - | - |
| 1777796505 | 7.22° C | 73% | - | 0 mm | - | - | - |
| 1777795904 | 6.67° C | 73% | - | 0 mm | - | - | - |
| 1777795304 | 7.22° C | 73% | - | 0 mm | - | - | - |
| 1777794702 | 7.22° C | 70% | - | 0 mm | - | - | - |
| 1777794101 | 7.22° C | 69% | - | 0 mm | - | - | - |
| 1777793500 | 7.78° C | 70% | - | 0 mm | - | - | - |
| 1777792900 | 7.78° C | 69% | - | 0 mm | - | - | - |
* Rain latest hour (hover to see other rain measurements)
** Current wind speed in m/s (hover to see current wind gust speed)